Time;durP1;ratioP1;P1;durP2;ratioP2;P2;SDS_P1;SDS_P2;PMS_P1;PMS_P2;Temp;Humidity;BMP_temperature;BMP_pressure;BME280_temperature;BME280_humidity;BME280_pressure;Samples;Min_cycle;Max_cycle;Signal;HPM_P1;HPM_P2
2021/09/27 00:01:26;;;;;;;26.57;13.87;;;15.90;99.90;;;;;;5033440;28;21314;-66
2021/09/27 00:03:54;;;;;;;22.13;14.97;;;15.90;99.90;;;;;;5032225;28;20225;-66
2021/09/27 00:06:24;;;;;;;21.90;14.40;;;15.90;99.90;;;;;;5028334;28;20208;-66
2021/09/27 00:08:53;;;;;;;17.63;12.60;;;15.90;99.90;;;;;;5034738;28;20200;-66
2021/09/27 00:11:24;;;;;;;20.83;13.50;;;15.90;99.90;;;;;;5033351;28;20248;-66
2021/09/27 00:13:54;;;;;;;18.13;13.63;;;15.90;99.90;;;;;;5035659;28;20208;-66
2021/09/27 00:16:25;;;;;;;21.27;14.10;;;15.80;99.90;;;;;;5042934;28;20244;-66
2021/09/27 00:18:53;;;;;;;20.63;14.90;;;15.80;99.90;;;;;;5039522;28;20254;-66
2021/09/27 00:21:26;;;;;;;24.60;14.50;;;15.70;99.90;;;;;;5024583;28;20228;-66
2021/09/27 00:23:56;;;;;;;22.50;14.97;;;15.60;99.90;;;;;;5039006;28;20628;-66
2021/09/27 00:26:27;;;;;;;20.93;14.60;;;15.60;99.90;;;;;;5033299;28;20224;-66
2021/09/27 00:28:55;;;;;;;22.37;15.37;;;15.60;99.90;;;;;;5029557;28;20193;-66
2021/09/27 00:31:24;;;;;;;21.90;15.00;;;15.60;99.90;;;;;;5038015;28;20189;-66
2021/09/27 00:33:53;;;;;;;22.43;15.27;;;15.50;99.90;;;;;;5037066;28;20296;-66
2021/09/27 00:36:21;;;;;;;25.70;15.87;;;15.50;99.90;;;;;;5034890;28;20196;-66
2021/09/27 00:38:51;;;;;;;24.20;15.23;;;15.40;99.90;;;;;;5038687;28;20281;-66
2021/09/27 00:41:22;;;;;;;22.20;15.57;;;15.40;99.90;;;;;;5028725;28;20504;-65
2021/09/27 00:43:52;;;;;;;23.20;15.47;;;15.30;99.90;;;;;;5035178;28;20572;-66
2021/09/27 00:46:24;;;;;;;25.90;16.07;;;15.30;99.90;;;;;;5028011;28;20248;-66
2021/09/27 00:48:54;;;;;;;27.07;15.93;;;15.40;99.90;;;;;;5029246;28;20744;-66
2021/09/27 00:51:27;;;;;;;28.23;16.83;;;15.40;99.90;;;;;;5046644;28;20616;-66
2021/09/27 00:53:59;;;;;;;25.97;16.40;;;15.40;99.90;;;;;;5041894;28;20193;-66
2021/09/27 00:56:31;;;;;;;27.27;16.70;;;15.40;99.90;;;;;;5029883;28;20561;-66
2021/09/27 00:59:01;;;;;;;29.03;18.33;;;15.40;99.90;;;;;;5047176;28;20280;-66
2021/09/27 01:01:30;;;;;;;27.03;17.60;;;15.40;99.90;;;;;;5030705;28;20273;-66
2021/09/27 01:03:59;;;;;;;30.20;18.83;;;15.50;99.90;;;;;;5043602;28;20245;-66
2021/09/27 01:06:40;;;;;;;33.80;19.37;;;15.50;99.90;;;;;;5033120;28;20749;-66
2021/09/27 01:09:20;;;;;;;32.07;19.33;;;15.50;99.90;;;;;;5024399;28;20185;-66
2021/09/27 01:12:19;;;;;;;30.13;18.20;;;15.50;99.90;;;;;;5031965;28;20219;-66
2021/09/27 01:15:26;;;;;;;30.47;18.77;;;15.60;99.90;;;;;;5030919;28;20274;-66
2021/09/27 01:18:07;;;;;;;31.60;19.93;;;15.60;99.90;;;;;;5025722;28;20664;-66
2021/09/27 01:21:07;;;;;;;32.33;18.83;;;15.60;99.90;;;;;;5027741;28;20288;-66
2021/09/27 01:24:24;;;;;;;29.60;19.83;;;15.70;99.90;;;;;;5030899;28;20231;-66
2021/09/27 01:27:38;;;;;;;32.37;20.47;;;15.60;99.90;;;;;;5031983;28;20200;-66
2021/09/27 01:30:46;;;;;;;31.27;19.67;;;15.60;99.90;;;;;;4989280;28;20699;-66
2021/09/27 01:33:22;;;;;;;32.33;19.30;;;15.60;99.90;;;;;;4995438;28;20552;-66
2021/09/27 01:36:07;;;;;;;29.93;18.53;;;15.60;99.90;;;;;;5041536;28;20644;-66
2021/09/27 01:38:47;;;;;;;30.53;18.07;;;15.60;99.90;;;;;;5039663;28;20213;-66
2021/09/27 01:41:31;;;;;;;30.60;18.67;;;15.60;99.90;;;;;;5025150;28;20197;-66
2021/09/27 01:44:10;;;;;;;30.43;19.33;;;15.60;99.90;;;;;;5058729;28;20220;-66
2021/09/27 01:47:07;;;;;;;33.47;19.30;;;15.50;99.90;;;;;;5028686;28;20193;-66
2021/09/27 01:49:47;;;;;;;33.73;19.00;;;15.50;99.90;;;;;;5061730;28;20200;-66
2021/09/27 01:52:28;;;;;;;33.43;19.67;;;15.50;99.90;;;;;;5060513;28;20748;-66
2021/09/27 01:55:06;;;;;;;34.17;19.40;;;15.50;99.90;;;;;;5058628;28;20193;-66
2021/09/27 01:57:46;;;;;;;30.47;18.73;;;15.50;99.90;;;;;;5028378;28;20555;-66
2021/09/27 02:00:20;;;;;;;32.63;19.23;;;15.50;99.90;;;;;;5033532;28;20633;-66
2021/09/27 02:02:52;;;;;;;34.47;20.30;;;15.50;99.90;;;;;;5030250;28;20261;-66
2021/09/27 02:05:27;;;;;;;29.47;18.43;;;15.40;99.90;;;;;;5023878;28;20241;-66
2021/09/27 02:08:00;;;;;;;30.70;19.57;;;15.40;99.90;;;;;;5029002;28;20195;-66
2021/09/27 02:10:34;;;;;;;32.00;20.07;;;15.40;99.90;;;;;;5036297;28;20193;-66
2021/09/27 02:13:10;;;;;;;32.83;19.23;;;15.40;99.90;;;;;;5060920;28;20288;-66
2021/09/27 02:15:55;;;;;;;34.63;19.27;;;15.30;99.90;;;;;;5040421;28;20196;-66
2021/09/27 02:18:29;;;;;;;32.20;18.93;;;15.40;99.90;;;;;;5033039;28;20777;-66
2021/09/27 02:21:06;;;;;;;32.00;19.07;;;15.40;99.90;;;;;;5027821;28;20390;-66
2021/09/27 02:23:41;;;;;;;31.77;18.67;;;15.50;99.90;;;;;;5032535;28;20231;-66
2021/09/27 02:26:10;;;;;;;28.80;18.97;;;15.50;99.90;;;;;;5022782;28;20216;-66
2021/09/27 02:28:38;;;;;;;27.80;17.67;;;15.50;99.90;;;;;;5026875;28;20564;-66
2021/09/27 02:31:14;;;;;;;31.80;19.33;;;15.40;99.90;;;;;;5036134;28;20221;-66
2021/09/27 02:33:50;;;;;;;32.80;18.97;;;15.40;99.90;;;;;;5037292;28;20238;-66
2021/09/27 02:36:25;;;;;;;31.47;18.57;;;15.30;99.90;;;;;;5031402;28;20275;-66
2021/09/27 02:39:00;;;;;;;34.57;19.67;;;15.30;99.90;;;;;;5022047;28;20757;-66
2021/09/27 02:41:35;;;;;;;32.83;19.47;;;15.20;99.90;;;;;;5029711;28;20283;-66
2021/09/27 02:44:09;;;;;;;35.93;19.93;;;15.20;99.90;;;;;;5029469;28;20308;-66
2021/09/27 02:46:42;;;;;;;31.00;19.20;;;15.20;99.90;;;;;;5024502;28;20201;-66
2021/09/27 02:49:14;;;;;;;33.93;19.63;;;15.20;99.90;;;;;;5029282;28;20196;-66
2021/09/27 02:51:49;;;;;;;31.57;18.63;;;15.20;99.90;;;;;;5045545;28;20192;-66
2021/09/27 02:54:27;;;;;;;33.37;20.27;;;15.20;99.90;;;;;;5028527;28;20659;-66
2021/09/27 02:57:28;;;;;;;30.47;19.60;;;15.20;99.90;;;;;;5055985;28;20297;-66
2021/09/27 03:00:08;;;;;;;31.87;19.00;;;15.20;99.90;;;;;;5009953;28;20225;-66
2021/09/27 03:03:22;;;;;;;29.17;19.33;;;15.20;99.90;;;;;;5033007;28;20260;-66
2021/09/27 03:06:03;;;;;;;29.67;19.90;;;15.20;99.90;;;;;;5030618;28;20201;-66
2021/09/27 03:08:53;;;;;;;31.50;18.83;;;15.20;99.90;;;;;;5037082;28;20255;-66
2021/09/27 03:12:15;;;;;;;32.40;19.47;;;15.20;99.90;;;;;;5029113;28;20757;-66
2021/09/27 03:15:08;;;;;;;35.53;19.97;;;15.30;99.90;;;;;;5046560;28;20207;-66
2021/09/27 03:17:45;;;;;;;32.83;19.53;;;15.20;99.90;;;;;;5027185;28;20209;-66
2021/09/27 03:20:42;;;;;;;32.10;19.80;;;15.20;99.90;;;;;;5061107;28;20199;-66
2021/09/27 03:23:18;;;;;;;34.43;19.43;;;15.20;99.90;;;;;;5038258;28;20232;-66
2021/09/27 03:25:58;;;;;;;32.27;19.03;;;15.10;99.90;;;;;;5031432;28;20283;-66
2021/09/27 03:28:34;;;;;;;37.70;19.77;;;15.10;99.90;;;;;;5029695;28;20256;-66
2021/09/27 03:31:14;;;;;;;31.13;18.87;;;15.10;99.90;;;;;;5026095;28;20207;-66
2021/09/27 03:33:53;;;;;;;36.53;19.50;;;15.10;99.90;;;;;;5027413;28;20657;-66
2021/09/27 03:36:43;;;;;;;32.77;18.97;;;15.10;99.90;;;;;;5043316;28;20240;-66
2021/09/27 03:39:22;;;;;;;28.30;18.53;;;15.10;99.90;;;;;;5022590;28;20562;-66
2021/09/27 03:41:57;;;;;;;33.90;19.23;;;15.10;99.90;;;;;;5038032;28;20193;-66
2021/09/27 03:44:35;;;;;;;36.03;21.30;;;15.00;99.90;;;;;;5029152;28;20224;-66
2021/09/27 03:47:08;;;;;;;38.30;21.30;;;15.10;99.90;;;;;;5037173;28;20193;-66
2021/09/27 03:49:44;;;;;;;42.57;22.83;;;15.00;99.90;;;;;;5037676;28;20205;-66
2021/09/27 03:52:17;;;;;;;41.20;22.73;;;15.00;99.90;;;;;;5034339;28;20188;-66
2021/09/27 03:54:52;;;;;;;47.77;24.97;;;15.00;99.90;;;;;;5049945;28;20201;-66
2021/09/27 03:57:26;;;;;;;51.53;25.80;;;15.00;99.90;;;;;;5035183;28;20288;-66
2021/09/27 04:00:00;;;;;;;48.83;26.67;;;15.00;99.90;;;;;;5030998;28;20302;-66
2021/09/27 04:02:37;;;;;;;50.10;26.90;;;15.20;99.90;;;;;;5037584;28;20185;-66
2021/09/27 04:05:10;;;;;;;51.53;27.90;;;15.20;99.90;;;;;;5031928;28;21975;-66
2021/09/27 04:07:54;;;;;;;54.60;27.80;;;15.30;99.90;;;;;;5033233;28;20283;-66
2021/09/27 04:10:30;;;;;;;55.93;29.23;;;15.30;99.90;;;;;;5032328;28;20647;-66
2021/09/27 04:13:16;;;;;;;59.83;30.70;;;15.40;99.90;;;;;;5045934;28;20189;-66
2021/09/27 04:16:00;;;;;;;68.07;31.77;;;15.40;99.90;;;;;;5027234;28;20196;-66
2021/09/27 04:19:22;;;;;;;68.80;34.23;;;15.50;99.90;;;;;;5035025;28;20263;-66
2021/09/27 04:22:01;;;;;;;83.07;35.90;;;15.50;99.90;;;;;;5036429;28;20447;-66
2021/09/27 04:24:49;;;;;;;81.37;36.37;;;15.60;99.90;;;;;;5037664;28;20189;-66
2021/09/27 04:27:41;;;;;;;77.80;37.80;;;15.60;99.90;;;;;;5033361;28;20201;-66
2021/09/27 04:30:39;;;;;;;83.90;40.27;;;15.60;99.90;;;;;;5028828;28;20280;-66
2021/09/27 04:33:23;;;;;;;88.60;40.27;;;15.70;99.90;;;;;;5037337;28;20212;-66
2021/09/27 04:36:01;;;;;;;97.23;41.90;;;15.70;99.90;;;;;;5028621;28;20687;-66
2021/09/27 04:38:31;;;;;;;93.60;43.37;;;15.80;99.90;;;;;;5033398;28;20658;-66
2021/09/27 04:41:33;;;;;;;96.80;41.77;;;15.80;99.90;;;;;;5063553;28;20201;-66
2021/09/27 04:44:12;;;;;;;105.07;43.23;;;15.90;99.90;;;;;;5033358;28;20710;-66
2021/09/27 04:46:47;;;;;;;98.67;43.63;;;15.90;99.90;;;;;;5035606;28;20230;-66
2021/09/27 04:49:41;;;;;;;101.70;43.53;;;16.00;99.90;;;;;;5033788;28;20246;-66
2021/09/27 04:52:18;;;;;;;97.00;42.27;;;16.00;99.90;;;;;;5039688;28;20668;-66
2021/09/27 04:55:26;;;;;;;105.60;42.67;;;16.00;99.90;;;;;;5030373;28;20243;-66
2021/09/27 04:58:13;;;;;;;95.67;42.37;;;16.10;99.90;;;;;;5027301;28;20213;-66
2021/09/27 05:01:03;;;;;;;93.70;40.90;;;16.10;99.90;;;;;;5033478;28;20225;-66
2021/09/27 05:04:00;;;;;;;86.30;40.33;;;16.10;99.90;;;;;;5029654;28;20225;-66
2021/09/27 05:07:12;;;;;;;86.97;39.93;;;16.20;99.90;;;;;;5059881;28;20288;-66
2021/09/27 05:09:55;;;;;;;89.40;38.60;;;16.20;99.90;;;;;;5007599;28;20761;-66
2021/09/27 05:12:41;;;;;;;91.00;40.23;;;16.20;99.90;;;;;;5028344;28;20220;-66
2021/09/27 05:15:32;;;;;;;95.07;42.13;;;16.30;99.90;;;;;;5032569;28;20225;-66
2021/09/27 05:18:23;;;;;;;89.27;38.87;;;16.30;99.90;;;;;;5024453;28;20194;-66
2021/09/27 05:21:21;;;;;;;87.97;40.17;;;16.40;99.90;;;;;;5036781;28;20228;-66
2021/09/27 05:24:04;;;;;;;88.57;39.43;;;16.40;99.90;;;;;;5038278;28;20190;-66
2021/09/27 05:26:52;;;;;;;81.07;38.57;;;16.50;99.90;;;;;;5034168;28;20224;-66
2021/09/27 05:29:36;;;;;;;83.10;40.17;;;16.50;99.90;;;;;;5025688;28;20722;-66
2021/09/27 05:32:23;;;;;;;83.97;40.23;;;16.50;99.90;;;;;;5029043;28;20240;-66
2021/09/27 05:35:07;;;;;;;89.50;40.17;;;16.60;99.90;;;;;;5061042;28;20334;-65
2021/09/27 05:37:48;;;;;;;78.13;38.63;;;16.60;99.90;;;;;;5029275;28;20334;-66
2021/09/27 05:40:33;;;;;;;73.43;37.83;;;16.60;99.90;;;;;;5031376;28;20213;-65
2021/09/27 05:43:34;;;;;;;80.77;38.37;;;16.60;99.90;;;;;;5027063;28;20594;-66
2021/09/27 05:46:17;;;;;;;69.63;36.00;;;16.60;99.90;;;;;;5019475;28;20264;-66
2021/09/27 05:48:52;;;;;;;66.00;34.60;;;16.60;99.90;;;;;;5057264;28;20243;-66
2021/09/27 05:51:29;;;;;;;65.87;33.30;;;16.70;99.90;;;;;;5033793;28;20685;-65
2021/09/27 05:54:05;;;;;;;65.47;32.13;;;16.70;99.90;;;;;;5027787;28;20488;-66
2021/09/27 05:56:39;;;;;;;57.07;30.63;;;16.70;99.90;;;;;;5047237;28;20205;-66
2021/09/27 05:59:17;;;;;;;50.03;27.57;;;16.80;99.90;;;;;;5036045;28;20220;-66
2021/09/27 06:01:57;;;;;;;46.47;27.20;;;16.80;99.90;;;;;;5030929;28;20229;-66
2021/09/27 06:04:29;;;;;;;52.30;27.50;;;16.80;99.90;;;;;;5024503;28;20384;-66
2021/09/27 06:07:08;;;;;;;44.90;25.07;;;16.80;99.90;;;;;;5032297;28;20195;-65
2021/09/27 06:09:52;;;;;;;36.47;22.60;;;16.90;99.90;;;;;;5027795;28;20284;-66
2021/09/27 06:12:28;;;;;;;34.73;20.23;;;17.00;99.90;;;;;;5028772;28;20746;-66
2021/09/27 06:15:01;;;;;;;32.10;21.00;;;17.00;99.90;;;;;;5033198;28;20223;-66
2021/09/27 06:17:54;;;;;;;29.03;18.93;;;17.00;99.90;;;;;;5038867;28;20268;-66
2021/09/27 06:20:33;;;;;;;31.37;18.73;;;17.00;99.90;;;;;;5023234;28;20233;-66
2021/09/27 06:23:19;;;;;;;25.40;17.00;;;17.00;99.90;;;;;;5035103;28;20275;-66
2021/09/27 06:25:55;;;;;;;25.77;16.57;;;17.10;99.90;;;;;;5036231;28;20592;-66
2021/09/27 06:28:32;;;;;;;24.97;16.07;;;17.10;99.90;;;;;;5037975;28;20216;-66
2021/09/27 06:31:06;;;;;;;23.43;15.57;;;17.10;99.90;;;;;;5058926;28;20218;-66
2021/09/27 06:33:39;;;;;;;19.63;14.80;;;17.10;99.90;;;;;;5039056;28;20197;-65
2021/09/27 06:36:11;;;;;;;19.77;14.53;;;17.10;99.90;;;;;;5030437;28;20207;-66
2021/09/27 06:38:41;;;;;;;21.47;14.03;;;17.10;99.90;;;;;;5034577;28;20489;-66
2021/09/27 06:41:17;;;;;;;22.10;13.50;;;17.10;99.90;;;;;;5036018;28;20201;-65
2021/09/27 06:43:46;;;;;;;16.60;13.03;;;17.10;99.90;;;;;;5025072;28;21032;-65
2021/09/27 06:46:16;;;;;;;15.60;12.40;;;17.10;99.90;;;;;;5023784;28;20901;-66
2021/09/27 06:48:44;;;;;;;21.83;12.17;;;17.10;99.90;;;;;;5025698;28;20222;-66
2021/09/27 06:51:13;;;;;;;12.53;10.90;;;17.10;99.90;;;;;;5028159;28;20221;-65
2021/09/27 06:53:41;;;;;;;16.80;12.13;;;17.20;99.90;;;;;;5023948;28;20203;-65
2021/09/27 06:56:11;;;;;;;13.67;11.10;;;17.20;99.90;;;;;;5022589;28;20653;-68
2021/09/27 06:58:40;;;;;;;17.33;11.03;;;17.20;99.90;;;;;;5033802;28;20639;-67
2021/09/27 07:01:09;;;;;;;13.07;10.70;;;17.20;99.90;;;;;;5036707;28;20588;-65
2021/09/27 07:03:37;;;;;;;13.60;9.63;;;17.20;99.90;;;;;;5026513;28;20239;-68
2021/09/27 07:06:06;;;;;;;14.73;10.10;;;17.20;99.90;;;;;;5027106;28;20195;-66
2021/09/27 07:08:34;;;;;;;15.90;9.20;;;17.30;99.90;;;;;;5027021;28;20293;-67
2021/09/27 07:11:02;;;;;;;10.67;9.53;;;17.20;99.90;;;;;;5031149;28;20193;-68
2021/09/27 07:13:32;;;;;;;9.50;8.27;;;17.20;99.90;;;;;;5029536;28;20431;-71
2021/09/27 07:16:06;;;;;;;9.07;8.17;;;17.20;99.90;;;;;;5040316;28;20446;-67
2021/09/27 07:18:35;;;;;;;12.70;8.90;;;17.30;99.90;;;;;;5044011;28;20188;-65
2021/09/27 07:21:06;;;;;;;12.27;8.33;;;17.20;99.90;;;;;;5035884;28;20467;-66
2021/09/27 07:23:38;;;;;;;12.07;7.90;;;17.20;99.90;;;;;;5037129;28;20362;-67
2021/09/27 07:26:07;;;;;;;9.90;7.57;;;17.20;99.90;;;;;;5033935;28;20195;-68
2021/09/27 07:28:37;;;;;;;10.13;7.27;;;17.30;99.90;;;;;;5034114;28;20293;-68
2021/09/27 07:31:05;;;;;;;11.63;7.77;;;17.40;99.90;;;;;;5034322;28;20214;-66
2021/09/27 07:33:35;;;;;;;9.07;8.10;;;17.40;99.90;;;;;;5039908;28;20197;-65
2021/09/27 07:36:05;;;;;;;10.83;7.43;;;17.30;99.90;;;;;;5058220;28;20266;-65
2021/09/27 07:38:36;;;;;;;11.33;7.60;;;17.30;99.90;;;;;;5028475;28;20244;-66
2021/09/27 07:41:05;;;;;;;12.23;7.53;;;17.40;99.90;;;;;;5034444;28;20205;-66
2021/09/27 07:43:34;;;;;;;8.03;7.23;;;17.40;99.90;;;;;;5031148;28;20240;-66
2021/09/27 07:46:04;;;;;;;12.43;7.87;;;17.50;99.90;;;;;;5035657;28;20335;-68
2021/09/27 07:48:32;;;;;;;8.03;7.10;;;17.50;99.90;;;;;;5030164;28;20195;-64
2021/09/27 07:51:02;;;;;;;13.03;7.17;;;17.60;99.90;;;;;;5032325;28;21510;-65
2021/09/27 07:53:30;;;;;;;7.87;6.77;;;17.70;99.90;;;;;;5033452;28;20194;-66
2021/09/27 07:55:59;;;;;;;7.23;6.53;;;17.70;99.90;;;;;;5035048;28;20602;-65
2021/09/27 07:58:27;;;;;;;9.90;6.70;;;17.70;99.90;;;;;;5033287;28;20211;-66
2021/09/27 08:00:56;;;;;;;8.17;6.17;;;17.70;99.90;;;;;;5043992;28;20627;-66
2021/09/27 08:03:26;;;;;;;9.20;6.23;;;17.70;99.90;;;;;;5034851;28;20224;-66
2021/09/27 08:05:54;;;;;;;7.03;6.30;;;17.70;99.90;;;;;;5035092;28;20198;-66
2021/09/27 08:08:23;;;;;;;8.23;6.53;;;17.70;99.90;;;;;;5036640;28;20198;-66
2021/09/27 08:10:53;;;;;;;6.30;5.80;;;17.80;99.90;;;;;;5031580;28;20191;-67
2021/09/27 08:13:22;;;;;;;8.10;6.63;;;17.70;99.90;;;;;;5035034;28;20430;-66
2021/09/27 08:15:53;;;;;;;6.57;6.07;;;17.70;99.90;;;;;;5063090;28;20200;-66
2021/09/27 08:18:23;;;;;;;8.47;6.30;;;17.80;99.90;;;;;;5033871;28;20407;-66
2021/09/27 08:20:57;;;;;;;8.53;6.40;;;17.80;99.90;;;;;;5027251;28;20215;-65
2021/09/27 08:23:27;;;;;;;7.13;5.80;;;17.80;99.90;;;;;;5034529;28;20297;-65
2021/09/27 08:25:56;;;;;;;8.80;6.30;;;17.80;99.90;;;;;;5033696;28;20281;-66
2021/09/27 08:28:27;;;;;;;8.07;5.53;;;17.90;99.90;;;;;;5034630;28;20197;-64
2021/09/27 08:30:57;;;;;;;9.10;6.20;;;17.90;99.90;;;;;;5069368;28;20195;-65
2021/09/27 08:33:27;;;;;;;8.53;6.23;;;17.90;99.90;;;;;;5029007;28;20292;-65
2021/09/27 08:35:59;;;;;;;6.67;5.60;;;17.90;99.90;;;;;;5035577;28;20264;-67
2021/09/27 08:38:28;;;;;;;7.43;6.30;;;17.90;99.90;;;;;;5036769;28;20284;-66
2021/09/27 08:41:06;;;;;;;8.23;5.47;;;18.00;99.90;;;;;;5030411;28;20219;-66
2021/09/27 08:43:48;;;;;;;8.90;5.63;;;18.00;99.90;;;;;;5039987;28;20246;-65
2021/09/27 08:46:24;;;;;;;9.93;5.40;;;18.10;99.90;;;;;;5027930;28;20786;-65
2021/09/27 08:49:02;;;;;;;9.03;5.20;;;18.00;99.90;;;;;;5031932;28;20192;-68
2021/09/27 08:51:33;;;;;;;6.03;5.53;;;18.00;99.90;;;;;;5027687;28;20226;-66
2021/09/27 08:54:12;;;;;;;9.43;5.97;;;18.00;99.90;;;;;;5034690;28;20194;-67
2021/09/27 08:56:46;;;;;;;6.57;5.97;;;18.10;99.90;;;;;;5032673;28;20195;-65
2021/09/27 08:59:27;;;;;;;5.70;5.30;;;18.00;99.90;;;;;;5022126;28;20220;-68
2021/09/27 09:02:06;;;;;;;5.63;5.10;;;18.00;99.90;;;;;;5029389;28;20617;-69
2021/09/27 09:04:42;;;;;;;5.33;4.73;;;18.10;99.90;;;;;;5028742;28;20732;-65
2021/09/27 09:07:17;;;;;;;5.57;5.07;;;18.10;99.90;;;;;;5028227;28;20193;-66
2021/09/27 09:09:49;;;;;;;6.10;4.57;;;18.10;99.90;;;;;;5025201;28;20245;-67
2021/09/27 09:12:25;;;;;;;5.90;4.90;;;18.10;99.90;;;;;;5034612;28;20217;-66
2021/09/27 09:15:07;;;;;;;5.57;5.07;;;18.10;99.90;;;;;;5032775;28;20220;-66
2021/09/27 09:17:39;;;;;;;6.20;4.83;;;18.10;99.90;;;;;;5029140;28;20203;-65
2021/09/27 09:20:13;;;;;;;5.50;4.80;;;18.20;99.90;;;;;;5033294;28;20266;-65
2021/09/27 09:22:46;;;;;;;7.03;4.47;;;18.30;99.90;;;;;;5034610;28;20244;-66
2021/09/27 09:25:22;;;;;;;11.00;4.40;;;18.30;99.90;;;;;;5036249;28;20238;-68
2021/09/27 09:27:51;;;;;;;5.23;4.73;;;18.40;99.90;;;;;;5029359;28;20661;-66
2021/09/27 09:30:22;;;;;;;6.87;4.40;;;18.40;99.90;;;;;;5034115;28;20188;-66
2021/09/27 09:32:53;;;;;;;7.43;4.43;;;18.40;99.90;;;;;;5033432;28;20619;-66
2021/09/27 09:35:26;;;;;;;9.43;4.20;;;18.50;99.90;;;;;;5029871;28;20234;-67
2021/09/27 09:38:05;;;;;;;4.33;3.93;;;18.60;99.90;;;;;;5033785;28;20306;-65
2021/09/27 09:40:36;;;;;;;4.50;4.20;;;18.60;99.90;;;;;;5027157;28;20197;-66
2021/09/27 09:43:09;;;;;;;7.33;4.63;;;18.70;99.90;;;;;;5031484;28;20213;-65
2021/09/27 09:45:44;;;;;;;4.93;4.43;;;18.80;99.90;;;;;;5030162;28;20203;-65
2021/09/27 09:48:21;;;;;;;4.37;3.93;;;18.90;99.90;;;;;;5025658;28;20554;-66
2021/09/27 09:50:52;;;;;;;4.40;4.10;;;18.90;99.90;;;;;;5029082;28;20443;-66
2021/09/27 09:53:28;;;;;;;4.50;4.10;;;18.90;99.90;;;;;;5028522;28;20765;-66
2021/09/27 09:56:01;;;;;;;5.83;3.73;;;18.90;99.90;;;;;;5025124;28;20225;-65
2021/09/27 09:58:34;;;;;;;5.30;3.90;;;18.90;99.90;;;;;;5034584;28;20257;-64
2021/09/27 10:01:13;;;;;;;5.27;3.80;;;19.00;99.90;;;;;;5026581;28;20252;-66
2021/09/27 10:03:46;;;;;;;4.30;3.90;;;19.00;99.90;;;;;;5030195;28;20722;-65
2021/09/27 10:06:21;;;;;;;8.80;3.90;;;19.00;99.90;;;;;;5023397;28;20738;-65
2021/09/27 10:08:58;;;;;;;4.20;3.60;;;19.10;99.90;;;;;;5029695;28;20205;-65
2021/09/27 10:11:33;;;;;;;4.30;3.50;;;19.20;99.90;;;;;;5027117;28;20227;-66
2021/09/27 10:14:19;;;;;;;3.97;3.70;;;19.20;99.90;;;;;;5030925;28;20200;-66
2021/09/27 10:16:51;;;;;;;6.97;4.10;;;19.30;99.90;;;;;;5021021;28;20494;-65
2021/09/27 10:19:31;;;;;;;3.77;3.47;;;19.40;99.90;;;;;;5024789;28;20287;-66
2021/09/27 10:22:07;;;;;;;3.87;3.47;;;19.60;99.90;;;;;;5028767;28;20278;-66
2021/09/27 10:24:39;;;;;;;5.07;3.33;;;19.70;99.90;;;;;;5035548;28;20212;-65
2021/09/27 10:27:18;;;;;;;6.03;3.10;;;19.70;99.90;;;;;;5027527;28;20213;-66
2021/09/27 10:29:48;;;;;;;3.07;2.87;;;19.90;99.90;;;;;;5028107;28;20319;-65
2021/09/27 10:32:28;;;;;;;4.03;2.90;;;20.00;99.90;;;;;;5027757;28;20613;-65
2021/09/27 10:34:58;;;;;;;3.10;2.80;;;20.00;99.90;;;;;;5028464;28;20189;-65
2021/09/27 10:37:28;;;;;;;3.97;3.03;;;20.00;99.90;;;;;;5033236;28;20244;-66
2021/09/27 10:39:59;;;;;;;4.80;3.20;;;20.00;99.90;;;;;;5025431;28;20198;-65
2021/09/27 10:42:39;;;;;;;3.90;2.87;;;20.00;99.90;;;;;;5021129;28;20715;-65
2021/09/27 10:45:11;;;;;;;3.50;3.00;;;19.90;99.90;;;;;;5023754;28;20189;-66
2021/09/27 10:47:44;;;;;;;5.90;3.10;;;19.90;99.90;;;;;;5030066;28;20224;-66
2021/09/27 10:50:17;;;;;;;6.10;3.07;;;19.80;99.90;;;;;;5032227;28;20274;-65
2021/09/27 10:52:55;;;;;;;3.17;2.97;;;19.70;99.90;;;;;;5033577;28;20205;-66
2021/09/27 10:55:34;;;;;;;3.40;3.10;;;19.50;99.90;;;;;;5060655;28;20604;-66
2021/09/27 10:58:06;;;;;;;4.87;3.10;;;19.60;99.90;;;;;;5045309;28;20299;-69
2021/09/27 11:00:39;;;;;;;6.07;2.90;;;19.50;99.90;;;;;;5040504;28;20205;-65
2021/09/27 11:03:15;;;;;;;6.60;3.10;;;19.60;99.90;;;;;;5033697;28;20220;-65
2021/09/27 11:05:51;;;;;;;5.23;2.90;;;19.40;99.90;;;;;;5028054;28;20255;-65
2021/09/27 11:08:48;;;;;;;4.43;3.00;;;19.40;99.90;;;;;;5031721;28;20201;-67
2021/09/27 11:11:36;;;;;;;5.30;2.80;;;19.40;99.90;;;;;;5041916;28;20263;-67
2021/09/27 11:14:28;;;;;;;4.83;3.30;;;19.30;99.90;;;;;;5044482;28;20608;-68
2021/09/27 11:17:23;;;;;;;3.20;3.00;;;19.20;99.90;;;;;;5026839;28;20212;-66
2021/09/27 11:20:17;;;;;;;3.43;3.23;;;19.00;99.90;;;;;;5027614;28;20197;-66
2021/09/27 11:23:08;;;;;;;3.20;3.00;;;18.80;99.90;;;;;;5029883;28;20239;-66
2021/09/27 11:25:39;;;;;;;5.33;3.90;;;18.60;99.90;;;;;;5029571;28;20203;-66
2021/09/27 11:28:40;;;;;;;3.83;3.50;;;18.50;99.90;;;;;;5034070;28;20221;-66
2021/09/27 11:31:33;;;;;;;5.37;3.50;;;18.40;99.90;;;;;;5034307;28;20503;-66
2021/09/27 11:34:43;;;;;;;4.53;4.13;;;18.30;99.90;;;;;;5032306;28;20287;-67
2021/09/27 11:37:19;;;;;;;5.60;4.07;;;18.20;99.90;;;;;;5039267;28;20195;-66
2021/09/27 11:39:52;;;;;;;4.23;4.03;;;18.10;99.90;;;;;;5032459;28;20254;-66
2021/09/27 11:42:37;;;;;;;4.73;4.43;;;17.90;99.90;;;;;;5027806;28;20285;-66
2021/09/27 11:45:48;;;;;;;4.70;4.40;;;17.90;99.90;;;;;;5027403;28;20208;-65
2021/09/27 11:48:45;;;;;;;4.97;4.50;;;17.80;99.90;;;;;;4979903;28;20234;-65
2021/09/27 11:51:31;;;;;;;6.53;4.23;;;17.70;99.90;;;;;;5030064;28;20272;-66
2021/09/27 11:54:35;;;;;;;6.27;5.07;;;17.70;99.90;;;;;;5028499;28;20223;-66
2021/09/27 11:57:20;;;;;;;5.93;5.20;;;17.60;99.90;;;;;;5035133;28;20590;-65
2021/09/27 12:00:01;;;;;;;7.83;4.80;;;17.60;99.90;;;;;;5028736;28;20298;-68
2021/09/27 12:02:38;;;;;;;7.37;5.00;;;17.60;99.90;;;;;;5027266;28;20608;-66
2021/09/27 12:05:20;;;;;;;5.67;5.07;;;17.50;99.90;;;;;;5032640;28;20201;-65
2021/09/27 12:07:53;;;;;;;4.97;4.20;;;17.40;99.90;;;;;;5031303;28;20652;-66
2021/09/27 12:10:27;;;;;;;4.83;4.37;;;17.40;99.90;;;;;;5025158;28;20202;-65
2021/09/27 12:13:00;;;;;;;4.60;4.20;;;17.30;99.90;;;;;;5045447;28;20264;-66
2021/09/27 12:15:33;;;;;;;4.57;4.30;;;17.30;99.90;;;;;;5028261;28;20225;-65
2021/09/27 12:18:02;;;;;;;4.40;3.93;;;17.30;99.90;;;;;;5033318;28;20276;-65
2021/09/27 12:20:40;;;;;;;6.50;4.00;;;17.20;99.90;;;;;;5026823;28;20286;-65
2021/09/27 12:23:11;;;;;;;4.23;3.73;;;17.20;99.90;;;;;;5036228;28;20594;-66
2021/09/27 12:25:42;;;;;;;7.77;3.60;;;17.10;99.90;;;;;;5030814;28;20715;-66
2021/09/27 12:28:13;;;;;;;3.27;3.10;;;17.10;99.90;;;;;;5033818;28;20193;-66
2021/09/27 12:30:45;;;;;;;3.87;3.57;;;17.00;99.90;;;;;;5032565;28;20200;-65
2021/09/27 12:33:26;;;;;;;3.20;3.10;;;17.10;99.90;;;;;;5024619;28;20553;-66
2021/09/27 12:36:07;;;;;;;3.27;3.00;;;17.00;99.90;;;;;;5033066;28;20279;-66
2021/09/27 12:38:44;;;;;;;3.33;3.07;;;17.00;99.90;;;;;;5033850;28;20595;-65
2021/09/27 12:41:13;;;;;;;3.57;3.37;;;16.90;99.90;;;;;;5035427;28;20617;-66
2021/09/27 12:43:41;;;;;;;3.63;3.27;;;17.00;99.90;;;;;;5030690;28;20253;-66
2021/09/27 12:46:17;;;;;;;5.67;3.70;;;17.00;99.90;;;;;;5034984;28;20198;-66
2021/09/27 12:48:50;;;;;;;6.50;3.87;;;17.00;99.90;;;;;;5036425;28;20609;-67
2021/09/27 12:51:26;;;;;;;4.97;2.77;;;16.90;99.90;;;;;;5041628;28;20668;-67
2021/09/27 12:54:00;;;;;;;5.17;2.10;;;16.50;99.90;;;;;;5031337;28;20199;-65
2021/09/27 12:56:31;;;;;;;6.03;2.63;;;16.20;99.90;;;;;;5063274;28;20220;-67
2021/09/27 12:59:02;;;;;;;5.13;2.53;;;16.00;99.90;;;;;;5034858;28;20193;-67
2021/09/27 13:01:34;;;;;;;5.33;2.70;;;15.80;99.90;;;;;;5029407;28;20268;-66
2021/09/27 13:04:06;;;;;;;8.33;2.80;;;15.70;99.90;;;;;;5031155;28;20243;-67
2021/09/27 13:06:53;;;;;;;6.33;2.33;;;15.50;99.90;;;;;;5042054;28;20251;-67
2021/09/27 13:09:24;;;;;;;6.13;1.70;;;15.40;99.90;;;;;;5031431;28;20201;-67
2021/09/27 13:12:11;;;;;;;6.97;2.27;;;15.30;99.90;;;;;;5034022;28;20195;-67
2021/09/27 13:14:44;;;;;;;5.57;1.93;;;15.20;99.90;;;;;;5033298;28;20192;-66
2021/09/27 13:17:18;;;;;;;4.77;2.20;;;15.00;99.90;;;;;;5039817;28;20193;-67
2021/09/27 13:19:49;;;;;;;7.93;2.30;;;15.00;99.90;;;;;;5046312;28;20205;-67
2021/09/27 13:22:26;;;;;;;6.53;2.10;;;15.00;99.90;;;;;;5031968;28;20221;-67
2021/09/27 13:25:00;;;;;;;6.53;2.97;;;15.10;99.90;;;;;;5029666;28;20251;-67
2021/09/27 13:27:37;;;;;;;6.33;2.00;;;15.10;99.90;;;;;;5031548;28;20254;-66
2021/09/27 13:30:21;;;;;;;7.80;2.00;;;15.20;99.90;;;;;;5052675;28;20193;-67